• Join FlightAware (Why Join?)
  • Login
  • US Flag 
03:49PM EST


 

Airport Tracker/Info


-or-


 

Live Flight TrackerFlight Track Log ✈ ACA1114 ✈ 25-Jun-2013 ✈ CYQR - CYYZ

Flight Track Log - Related Links

Times and Time Zones

All times are in EDT time to prevent confusion due to time zone crossing. See the ACA1114 flight status page for this flight to view local times or setup timezone preferences in your user account.

Time Position Orientation Groundspeed Altitude Reporting Facility
EDT Latitude Longitude Course Direction KTS MPH feet Rate Location/Type
12:50PM 50.4000 -104.6333 95° East 170 196 3,500  Level Winnipeg Center
12:51PM 50.3500 -104.5833 147° Southeast 210 242 5,100 1,680 Climbing Winnipeg Center
12:52PM 50.3500 -104.4500 90° East 290 334 6,900 2,340 Climbing Winnipeg Center
12:53PM 50.3235 -103.8878 95° East  Level Estimated
12:53PM 50.3500 -104.3167 90° East 300 345 9,800  Level Winnipeg Center
12:54PM 50.2955 -103.6938 93° East  Level Estimated
12:54PM 50.3500 -104.1833 90° East 310 357 12,300  Level Winnipeg Center
12:55PM 50.3392 -103.5071 70° East  Level FlightAware Approximate
12:55PM 50.3500 -104.0333 90° East 330 380 14,300  Level Winnipeg Center
12:56PM 50.3102 -103.3135 95° East  Level Estimated
12:56PM 50.3667 -103.8667 81° East 340 391 16,500  Level Winnipeg Center
12:57PM 50.3500 -103.7333 101° East 360 414 18,800 1,800 Climbing Winnipeg Center
12:58PM 50.3667 -103.5500 82° East 390 449 20,200 1,560 Climbing Winnipeg Center
12:59PM 50.3500 -103.4000 100° East 400 460 22,000 1,980 Climbing Winnipeg Center
01:00PM 50.3500 -103.1833 90° East 410 472 24,200 1,800 Climbing Winnipeg Center
01:01PM 50.3500 -103.0333 90° East 410 472 25,700 1,380 Climbing Winnipeg Center
01:02PM 50.3500 -102.8500 90° East 410 472 27,000 1,260 Climbing Winnipeg Center
01:03PM 50.3333 -102.6667 98° East 420 483 28,300 1,200 Climbing Winnipeg Center
01:04PM 50.3500 -102.4833 82° East 430 495 29,400 1,020 Climbing Winnipeg Center
01:05PM 50.3667 -102.2667 83° East 440 506 30,400 900 Climbing Winnipeg Center
01:06PM 50.3667 -102.0833 90° East 450 518 31,200 900 Climbing Winnipeg Center
01:07PM 50.3667 -101.8667 90° East 450 518 32,200 960 Climbing Winnipeg Center
01:08PM 50.3667 -101.6833 90° East 450 518 33,200 960 Climbing Winnipeg Center
01:09PM 50.3833 -101.4833 82° East 450 518 34,200 780 Climbing Winnipeg Center
01:10PM 50.3833 -101.3000 90° East 440 506 34,800 600 Climbing Winnipeg Center
01:11PM 50.3667 -101.1167 98° East 440 506 35,500 540 Climbing Winnipeg Center
01:12PM 50.3833 -100.9333 82° East 450 518 35,900 540 Climbing Winnipeg Center
01:13PM 50.3833 -100.7167 90° East 450 518 36,600 480 Climbing Winnipeg Center
01:14PM 50.4000 -100.5333 82° East 450 518 36,900 180 Climbing Winnipeg Center
01:15PM 50.4000 -100.3333 90° East 450 518 37,000  Climbing Winnipeg Center
01:16PM 50.3833 -100.1167 97° East 460 529 37,000  Level Winnipeg Center
01:17PM 50.4000 -99.9000 83° East 460 529 37,000  Level Winnipeg Center
01:18PM 50.4000 -99.7167 90° East 470 541 37,000  Level Winnipeg Center
01:19PM 50.4000 -99.5167 90° East 470 541 37,000  Level Winnipeg Center
01:20PM 50.4000 -99.3000 90° East 470 541 37,000  Level Winnipeg Center
01:21PM 50.4167 -99.1000 82° East 470 541 37,000  Level Winnipeg Center
01:22PM 50.4000 -98.8833 97° East 470 541 37,000  Level Winnipeg Center
01:23PM 50.4000 -98.6667 90° East 480 552 37,000  Level Winnipeg Center
01:24PM 50.3500 -98.4667 111° Southeast 480 552 37,000  Level Winnipeg Center
01:25PM 50.3167 -98.2833 106° East 480 552 37,000  Level Winnipeg Center
01:26PM 50.3000 -98.0667 97° East 480 552 37,000  Level Winnipeg Center
01:27PM 50.2500 -97.8833 113° Southeast 480 552 37,000  Level Winnipeg Center
01:28PM 50.2167 -97.6667 103° East 480 552 37,000  Level Winnipeg Center
01:29PM 50.1833 -97.4667 105° East 480 552 37,000  Level Winnipeg Center
01:30PM 50.1500 -97.2833 106° East 480 552 37,000  Level Winnipeg Center
01:31PM 50.1000 -97.0667 110° East 480 552 37,000  Level Winnipeg Center
01:32PM 50.0667 -96.8667 104° East 480 552 37,000  Level Winnipeg Center
01:33PM 50.0333 -96.6833 106° East 470 541 37,000  Level Winnipeg Center
01:34PM 49.9833 -96.4667 110° East 480 552 37,000  Level Winnipeg Center
01:35PM 49.9500 -96.2833 106° East 480 552 37,000  Level Winnipeg Center
01:36PM 49.9167 -96.0833 104° East 480 552 37,000  Level Winnipeg Center
01:37PM 49.8500 -95.8833 117° Southeast 480 552 37,000  Level Winnipeg Center
01:38PM 49.8167 -95.7000 106° East 480 552 37,000  Level Winnipeg Center
01:39PM 49.7833 -95.4833 103° East 470 541 37,000  Level Winnipeg Center
01:40PM 49.7333 -95.3167 115° Southeast 480 552 37,000  Level Winnipeg Center
01:41PM 49.7000 -95.1000 103° East 480 552 37,000  Level Winnipeg Center
01:42PM 49.6667 -94.9167 106° East 470 541 37,000  Level Winnipeg Center
01:43PM 49.6167 -94.7167 111° Southeast 470 541 37,000  Level Winnipeg Center
01:44PM 49.5667 -94.5167 111° Southeast 470 541 37,000  Level Winnipeg Center
01:45PM 49.5333 -94.3333 106° East 470 541 37,000  Level Winnipeg Center
01:46PM 49.5000 -94.1333 104° East 470 541 37,000  Level Winnipeg Center
01:47PM 49.4500 -93.9500 113° Southeast 470 541 37,000  Level Winnipeg Center
01:48PM 49.4167 -93.7500 104° East 460 529 37,000  Level Winnipeg Center
01:49PM 49.4000 -93.5667 98° East 470 541 37,000  Level Winnipeg Center
01:50PM 49.3667 -93.3667 104° East 470 541 37,000  Level Winnipeg Center
01:51PM 49.3333 -93.2000 107° East 470 541 37,000  Level Winnipeg Center
01:52PM 49.3000 -92.9833 103° East 470 541 37,000  Level Winnipeg Center
01:53PM 49.2833 -92.7833 97° East 470 541 37,000  Level Winnipeg Center
01:54PM 49.2333 -92.5833 111° Southeast 470 541 37,000  Level Winnipeg Center
01:55PM 49.2167 -92.4000 98° East 470 541 37,000  Level Winnipeg Center
01:56PM 49.2000 -92.2000 97° East 470 541 37,000  Level Winnipeg Center
01:57PM 49.1500 -92.0333 115° Southeast 470 541 37,000  Level Winnipeg Center
01:58PM 49.1167 -91.8000 102° East 470 541 37,000  Level Winnipeg Center
01:59PM 49.1000 -91.6333 99° East 470 541 37,000  Level Winnipeg Center
02:00PM 49.0667 -91.4500 105° East 470 541 37,000  Level Winnipeg Center
02:01PM 49.0333 -91.2500 104° East 470 541 37,000  Level Winnipeg Center
02:02PM 49.0000 -91.0500 104° East 470 541 37,000  Level Winnipeg Center
02:03PM 48.9667 -90.8500 104° East 470 541 37,000  Level Winnipeg Center
02:04PM 48.9333 -90.6500 104° East 470 541 37,000  Level Winnipeg Center
02:05PM 48.9000 -90.4667 105° East 470 541 37,000  Level Winnipeg Center
02:06PM 48.8667 -90.2833 105° East 480 552 37,000  Level Winnipeg Center
02:07PM 48.8333 -90.0833 104° East 480 552 37,000  Level Winnipeg Center
02:08PM 48.8000 -89.8833 104° East 480 552 37,000  Level Winnipeg Center
02:09PM 48.7500 -89.6833 111° Southeast 480 552 37,000  Level Winnipeg Center
02:10PM 48.7333 -89.5000 98° East 480 552 37,000  Level Winnipeg Center
02:11PM 48.7000 -89.2833 103° East 480 552 37,000  Level Winnipeg Center
02:12PM 48.6500 -89.1167 114° Southeast 480 552 37,000  Level Winnipeg Center
02:13PM 48.6000 -88.9167 111° Southeast 480 552 37,000  Level Winnipeg Center
02:14PM 48.5333 -88.7500 121° Southeast 470 541 37,000  Level Winnipeg Center
02:15PM 48.4833 -88.5833 114° Southeast 470 541 37,000  Level Winnipeg Center
02:16PM 48.4167 -88.4000 119° Southeast 480 552 37,000  Level Winnipeg Center
02:17PM 48.3500 -88.2333 121° Southeast 480 552 37,000  Level Winnipeg Center
02:18PM 48.2833 -88.0333 117° Southeast 480 552 37,000  Level Winnipeg Center
02:19PM 48.2000 -87.8667 127° Southeast 480 552 37,000  Level Winnipeg Center
02:20PM 48.1333 -87.7167 124° Southeast 480 552 37,000  Level Winnipeg Center
02:21PM 48.0667 -87.5167 116° Southeast 480 552 37,000  Level Winnipeg Center
02:22PM 48.0000 -87.3667 124° Southeast 480 552 37,000  Level Winnipeg Center
02:23PM 47.9333 -87.1667 116° Southeast 480 552 37,000  Level Winnipeg Center
02:24PM 47.8667 -87.0167 123° Southeast 480 552 37,000  Level Winnipeg Center
02:25PM 47.8000 -86.8167 116° Southeast 480 552 37,000  Level Winnipeg Center
02:26PM 47.7333 -86.6667 123° Southeast 480 552 37,000  Level Winnipeg Center
02:27PM 47.6667 -86.4667 116° Southeast 480 552 37,000  Level Winnipeg Center
02:28PM 47.6000 -86.3167 123° Southeast 480 552 37,000  Level Winnipeg Center
02:29PM 47.5333 -86.1333 118° Southeast 490 564 37,000  Level Winnipeg Center
02:30PM 47.4667 -85.9667 121° Southeast 490 564 37,000  Level Winnipeg Center
02:31PM 47.4000 -85.7833 118° Southeast 490 564 37,000  Level Winnipeg Center
02:32PM 47.3167 -85.6333 129° Southeast 480 552 37,000  Level Winnipeg Center
02:33PM 47.2667 -85.4500 112° Southeast 480 552 37,000  Level Winnipeg Center
02:34PM 47.1833 -85.2833 126° Southeast 480 552 37,000  Level Winnipeg Center
02:35PM 47.1167 -85.1333 123° Southeast 480 552 37,000  Level Winnipeg Center
02:36PM 47.0500 -84.9500 118° Southeast 480 552 37,000  Level Winnipeg Center
02:37PM 46.9667 -84.7667 124° Southeast 490 564 37,000  Level Winnipeg Center
02:38PM 46.9000 -84.6167 123° Southeast 490 564 37,000  Level Winnipeg Center
02:39PM 46.8333 -84.4333 118° Southeast 490 564 37,000  Level Winnipeg Center
02:40PM 46.7667 -84.2833 123° Southeast 490 564 37,000  Level Winnipeg Center
02:41PM 46.7000 -84.1333 123° Southeast 490 564 37,000  Level Winnipeg Center
02:43PM 46.6167 -83.9500 123° Southeast 490 564 37,000  Level Toronto Center
02:44PM 46.5500 -83.7833 120° Southeast 500 575 37,000  Level Toronto Center
02:45PM 46.4500 -83.6000 128° Southeast 510 587 37,000  Level Toronto Center
02:46PM 46.3833 -83.4500 123° Southeast 510 587 37,000  Level Toronto Center
02:47PM 46.3167 -83.2833 120° Southeast 510 587 37,000  Level Toronto Center
02:48PM 46.2167 -83.1000 128° Southeast 510 587 37,000  Level Toronto Center
02:49PM 46.1333 -82.9500 129° Southeast 510 587 37,000  Level Toronto Center
02:50PM 46.0500 -82.7500 121° Southeast 510 587 37,000  Level Toronto Center
02:51PM 45.9833 -82.6000 123° Southeast 510 587 37,000  Level Toronto Center
02:52PM 45.9000 -82.4333 126° Southeast 510 587 37,000  Level Toronto Center
02:53PM 45.8167 -82.2667 126° Southeast 510 587 37,000  Level Toronto Center
02:54PM 45.7167 -82.1000 131° Southeast 510 587 37,000  Level Toronto Center
02:55PM 45.6333 -81.9667 132° Southeast 500 575 37,000  Level Toronto Center
02:57PM 45.4333 -81.7000 137° Southeast 490 564 37,000  Level Toronto Center
02:58PM 45.3333 -81.5833 141° Southeast 500 575 37,000  Level Toronto Center
02:59PM 45.2167 -81.4333 138° Southeast 490 564 37,000  Level Toronto Center
03:00PM 45.1167 -81.3167 141° Southeast 490 564 37,000 -600 Level Toronto Center
03:01PM 45.0167 -81.1833 137° Southeast 480 552 35,900 -1,680 Descending Toronto Center
03:02PM 44.9333 -81.0667 135° Southeast 480 552 33,700 -2,280 Descending Toronto Center
03:03PM 44.8167 -80.9333 141° Southeast 470 541 31,400 -2,340 Descending Toronto Center
03:04PM 44.7333 -80.8000 131° Southeast 490 564 29,100 -2,340 Descending Toronto Center
03:05PM 44.6333 -80.6833 140° Southeast 470 541 26,800 -2,220 Descending Toronto Center
03:06PM 44.5500 -80.5667 135° Southeast 460 529 24,700 -2,100 Descending Toronto Center
03:07PM 44.4500 -80.4500 140° Southeast 450 518 22,600 -2,100 Descending Toronto Center
03:08PM 44.3667 -80.3333 135° Southeast 430 495 20,500 -1,980 Descending Toronto Center
03:09PM 44.2833 -80.2667 150° Southeast 400 460 18,700 -1,860 Descending Toronto Center
03:10PM 44.1833 -80.1667 144° Southeast 380 437 16,800 -1,980 Descending Toronto Center
03:11PM 44.1000 -80.1000 150° Southeast 380 437 14,800 -1,920 Descending Toronto Center
03:12PM 44.0167 -80.0000 139° Southeast 380 437 13,000 -1,200 Descending Toronto Center
03:13PM 43.9500 -79.9333 144° Southeast 340 391 12,500 -840 Descending Toronto Center
03:14PM 43.8833 -79.8667 144° Southeast 310 357 11,400 -1,320 Descending Toronto Center
03:15PM 43.8167 -79.7667 133° Southeast 300 345 9,900 -1,200 Descending Toronto Center
03:16PM 43.7667 -79.7000 136° Southeast 290 334 9,100 -1,380 Descending Toronto Center
03:17PM 43.8000 -79.6167 61° Northeast 270 311 7,200 -1,680 Descending Toronto Center
03:18PM 43.8500 -79.5333 50° Northeast 250 288 5,800 -1,500 Descending Toronto Center
03:19PM 43.8167 -79.4667 125° Southeast 230 265 4,200 -1,380 Descending Toronto Center
03:20PM 43.7667 -79.5000 206° Southwest 180 207 3,100 -1,140 Descending Toronto Center